Cotton Gin, Texas
Current Conditions -  °F | °C
As of 9:35 AM on Monday 22 Dec 2014 (Local Time) from KLXY Reporting Station
Broken Clouds Broken Clouds  
Wind Chill: 58°   Ceiling: 1300
Heat Index: 58°   Visibility: 10mi
Dew Point: 53°   Wind: 18mph
Humidity: 83%   Direction: 200°SSW
Pressure: 29.67"   Gusts: 25mph
Location:  31.6463°N, 96.2786°W
Report Text: KLXY 221535Z AUTO 20016G22KT 10SM BKN013 15/12 A2967 RMK AO2 T01470119
Loading
Personal Weather Stations






























Interactive Weather Map New forecast layout! Learn more

10-Day Weather Forecast

Advertisements
Track Severe Weather on mobile